sensor_id;sensor_type;location;lat;lon;timestamp;pressure;altitude;pressure_sealevel;temperature;humidity
49825;BME280;35714;55.708;37.478;2024-03-29T00:01:04;98650.31;;;7.14;44.61
49825;BME280;35714;55.708;37.478;2024-03-29T00:03:30;98636.25;;;7.12;44.54
49825;BME280;35714;55.708;37.478;2024-03-29T00:05:56;98627.56;;;7.10;45.04
49825;BME280;35714;55.708;37.478;2024-03-29T00:08:22;98642.22;;;7.14;44.85
49825;BME280;35714;55.708;37.478;2024-03-29T00:10:47;98637.75;;;7.08;44.81
49825;BME280;35714;55.708;37.478;2024-03-29T00:13:13;98626.41;;;7.06;44.81
49825;BME280;35714;55.708;37.478;2024-03-29T00:15:39;98638.34;;;7.10;45.03
49825;BME280;35714;55.708;37.478;2024-03-29T00:18:06;98625.94;;;7.09;44.74
49825;BME280;35714;55.708;37.478;2024-03-29T00:20:31;98630.88;;;7.12;44.94
49825;BME280;35714;55.708;37.478;2024-03-29T00:22:57;98641.66;;;7.12;44.82
49825;BME280;35714;55.708;37.478;2024-03-29T00:25:23;98629.44;;;7.21;44.92
49825;BME280;35714;55.708;37.478;2024-03-29T00:27:48;98619.75;;;7.20;44.98
49825;BME280;35714;55.708;37.478;2024-03-29T00:30:14;98617.16;;;7.26;44.97
49825;BME280;35714;55.708;37.478;2024-03-29T00:32:40;98622.53;;;7.26;44.73
49825;BME280;35714;55.708;37.478;2024-03-29T00:35:06;98619.50;;;7.22;44.89
49825;BME280;35714;55.708;37.478;2024-03-29T00:37:32;98614.91;;;7.22;45.02
49825;BME280;35714;55.708;37.478;2024-03-29T00:39:57;98608.25;;;7.25;44.93
49825;BME280;35714;55.708;37.478;2024-03-29T00:42:24;98596.84;;;7.23;44.98
49825;BME280;35714;55.708;37.478;2024-03-29T00:44:50;98599.94;;;7.27;44.75
49825;BME280;35714;55.708;37.478;2024-03-29T00:47:16;98599.09;;;7.26;44.80
49825;BME280;35714;55.708;37.478;2024-03-29T00:49:41;98587.97;;;7.22;45.12
49825;BME280;35714;55.708;37.478;2024-03-29T00:52:07;98583.16;;;7.25;44.91
49825;BME280;35714;55.708;37.478;2024-03-29T00:54:33;98589.00;;;7.21;45.20
49825;BME280;35714;55.708;37.478;2024-03-29T00:56:59;98590.31;;;7.31;45.11
49825;BME280;35714;55.708;37.478;2024-03-29T00:59:25;98583.75;;;7.27;44.82
49825;BME280;35714;55.708;37.478;2024-03-29T01:01:50;98579.16;;;7.27;44.95
49825;BME280;35714;55.708;37.478;2024-03-29T01:04:16;98579.97;;;7.28;45.02
49825;BME280;35714;55.708;37.478;2024-03-29T01:06:42;98577.97;;;7.23;44.96
49825;BME280;35714;55.708;37.478;2024-03-29T01:09:09;98572.94;;;7.15;45.43
49825;BME280;35714;55.708;37.478;2024-03-29T01:11:40;98577.53;;;7.14;45.52
49825;BME280;35714;55.708;37.478;2024-03-29T01:14:06;98573.91;;;7.20;45.29
49825;BME280;35714;55.708;37.478;2024-03-29T01:16:32;98572.72;;;7.16;45.38
49825;BME280;35714;55.708;37.478;2024-03-29T01:18:59;98560.63;;;7.07;45.35
49825;BME280;35714;55.708;37.478;2024-03-29T01:21:26;98569.91;;;7.11;45.50
49825;BME280;35714;55.708;37.478;2024-03-29T01:23:52;98565.78;;;7.09;45.67
49825;BME280;35714;55.708;37.478;2024-03-29T01:26:17;98560.16;;;7.10;45.72
49825;BME280;35714;55.708;37.478;2024-03-29T01:28:44;98558.09;;;7.12;45.94
49825;BME280;35714;55.708;37.478;2024-03-29T01:31:09;98566.16;;;7.12;45.71
49825;BME280;35714;55.708;37.478;2024-03-29T01:33:35;98554.53;;;7.12;46.01
49825;BME280;35714;55.708;37.478;2024-03-29T01:36:07;98551.16;;;7.16;45.74
49825;BME280;35714;55.708;37.478;2024-03-29T01:38:33;98539.56;;;7.16;45.75
49825;BME280;35714;55.708;37.478;2024-03-29T01:40:59;98533.22;;;7.22;45.66
49825;BME280;35714;55.708;37.478;2024-03-29T01:43:25;98530.75;;;7.20;45.77
49825;BME280;35714;55.708;37.478;2024-03-29T01:45:54;98533.94;;;7.17;45.65
49825;BME280;35714;55.708;37.478;2024-03-29T01:48:23;98533.56;;;7.26;45.87
49825;BME280;35714;55.708;37.478;2024-03-29T01:50:51;98530.75;;;7.20;45.79
49825;BME280;35714;55.708;37.478;2024-03-29T01:53:18;98529.13;;;7.19;45.74
49825;BME280;35714;55.708;37.478;2024-03-29T01:55:45;98514.59;;;7.20;45.88
49825;BME280;35714;55.708;37.478;2024-03-29T01:58:11;98513.88;;;7.13;45.81
49825;BME280;35714;55.708;37.478;2024-03-29T02:00:40;98512.94;;;7.19;45.81
49825;BME280;35714;55.708;37.478;2024-03-29T02:03:08;98503.81;;;7.20;46.04
49825;BME280;35714;55.708;37.478;2024-03-29T02:05:41;98507.53;;;7.19;46.11
49825;BME280;35714;55.708;37.478;2024-03-29T02:08:08;98493.84;;;7.21;45.97
49825;BME280;35714;55.708;37.478;2024-03-29T02:10:35;98501.69;;;7.22;46.05
49825;BME280;35714;55.708;37.478;2024-03-29T02:13:01;98493.50;;;7.17;46.02
49825;BME280;35714;55.708;37.478;2024-03-29T02:15:30;98498.06;;;7.17;46.07
49825;BME280;35714;55.708;37.478;2024-03-29T02:17:57;98484.47;;;7.23;46.05
49825;BME280;35714;55.708;37.478;2024-03-29T02:20:24;98481.06;;;7.16;46.08
49825;BME280;35714;55.708;37.478;2024-03-29T02:23:11;98484.69;;;7.22;46.24
49825;BME280;35714;55.708;37.478;2024-03-29T02:25:39;98470.28;;;7.16;46.10
49825;BME280;35714;55.708;37.478;2024-03-29T02:28:05;98478.47;;;7.21;46.05
49825;BME280;35714;55.708;37.478;2024-03-29T02:30:31;98474.81;;;7.28;45.99
49825;BME280;35714;55.708;37.478;2024-03-29T02:32:58;98462.41;;;7.27;46.13
49825;BME280;35714;55.708;37.478;2024-03-29T02:35:24;98467.56;;;7.28;45.84
49825;BME280;35714;55.708;37.478;2024-03-29T02:37:50;98457.50;;;7.23;46.09
49825;BME280;35714;55.708;37.478;2024-03-29T02:40:16;98476.25;;;7.30;45.98
49825;BME280;35714;55.708;37.478;2024-03-29T02:42:41;98465.13;;;7.27;46.01
49825;BME280;35714;55.708;37.478;2024-03-29T02:45:08;98457.13;;;7.32;46.18
49825;BME280;35714;55.708;37.478;2024-03-29T02:47:33;98435.84;;;7.18;45.90
49825;BME280;35714;55.708;37.478;2024-03-29T02:49:59;98465.44;;;7.30;46.09
49825;BME280;35714;55.708;37.478;2024-03-29T02:52:25;98467.34;;;7.30;46.20
49825;BME280;35714;55.708;37.478;2024-03-29T02:54:51;98465.13;;;7.27;46.32
49825;BME280;35714;55.708;37.478;2024-03-29T02:57:16;98451.97;;;7.30;46.13
49825;BME280;35714;55.708;37.478;2024-03-29T02:59:42;98449.75;;;7.27;46.21
49825;BME280;35714;55.708;37.478;2024-03-29T03:02:08;98444.81;;;7.36;46.00
49825;BME280;35714;55.708;37.478;2024-03-29T03:04:34;98429.13;;;7.33;46.11
49825;BME280;35714;55.708;37.478;2024-03-29T03:06:59;98429.81;;;7.28;45.93
49825;BME280;35714;55.708;37.478;2024-03-29T03:09:44;98438.81;;;7.34;45.76
49825;BME280;35714;55.708;37.478;2024-03-29T03:12:30;98425.38;;;7.22;46.02
49825;BME280;35714;55.708;37.478;2024-03-29T03:14:57;98421.75;;;7.16;46.30
49825;BME280;35714;55.708;37.478;2024-03-29T03:17:23;98418.97;;;7.11;46.82
49825;BME280;35714;55.708;37.478;2024-03-29T03:19:51;98429.63;;;7.06;46.23
49825;BME280;35714;55.708;37.478;2024-03-29T03:22:17;98418.84;;;6.94;46.64
49825;BME280;35714;55.708;37.478;2024-03-29T03:24:42;98423.53;;;6.99;46.84
49825;BME280;35714;55.708;37.478;2024-03-29T03:27:08;98418.50;;;6.91;47.01
49825;BME280;35714;55.708;37.478;2024-03-29T03:29:34;98411.00;;;6.93;47.09
49825;BME280;35714;55.708;37.478;2024-03-29T03:32:00;98409.50;;;6.85;47.23
49825;BME280;35714;55.708;37.478;2024-03-29T03:34:25;98407.03;;;6.83;47.49
49825;BME280;35714;55.708;37.478;2024-03-29T03:36:51;98415.34;;;6.82;47.37
49825;BME280;35714;55.708;37.478;2024-03-29T03:39:17;98418.75;;;6.77;47.59
49825;BME280;35714;55.708;37.478;2024-03-29T03:41:42;98415.00;;;6.78;47.49
49825;BME280;35714;55.708;37.478;2024-03-29T03:44:08;98412.78;;;6.75;47.68
49825;BME280;35714;55.708;37.478;2024-03-29T03:46:33;98398.75;;;6.73;47.65
49825;BME280;35714;55.708;37.478;2024-03-29T03:48:59;98411.84;;;6.81;47.58
49825;BME280;35714;55.708;37.478;2024-03-29T03:51:25;98396.16;;;6.78;47.83
49825;BME280;35714;55.708;37.478;2024-03-29T03:53:50;98397.66;;;6.74;47.72
49825;BME280;35714;55.708;37.478;2024-03-29T03:56:16;98397.09;;;6.72;47.75
49825;BME280;35714;55.708;37.478;2024-03-29T03:58:44;98387.25;;;6.78;47.82
49825;BME280;35714;55.708;37.478;2024-03-29T04:01:09;98392.16;;;6.81;47.58
49825;BME280;35714;55.708;37.478;2024-03-29T04:03:35;98386.56;;;6.82;48.00
49825;BME280;35714;55.708;37.478;2024-03-29T04:06:05;98383.13;;;6.99;47.48
49825;BME280;35714;55.708;37.478;2024-03-29T04:08:31;98375.13;;;7.04;47.16
49825;BME280;35714;55.708;37.478;2024-03-29T04:10:57;98372.56;;;7.09;47.18
49825;BME280;35714;55.708;37.478;2024-03-29T04:13:23;98370.16;;;7.25;46.79
49825;BME280;35714;55.708;37.478;2024-03-29T04:15:48;98369.41;;;7.41;46.22
49825;BME280;35714;55.708;37.478;2024-03-29T04:18:14;98378.53;;;7.40;46.52
49825;BME280;35714;55.708;37.478;2024-03-29T04:20:40;98369.59;;;7.51;46.45
49825;BME280;35714;55.708;37.478;2024-03-29T04:23:06;98369.78;;;7.62;45.74
49825;BME280;35714;55.708;37.478;2024-03-29T04:25:31;98362.84;;;7.66;45.77
49825;BME280;35714;55.708;37.478;2024-03-29T04:27:58;98362.00;;;7.65;45.97
49825;BME280;35714;55.708;37.478;2024-03-29T04:30:24;98359.00;;;7.62;45.58
49825;BME280;35714;55.708;37.478;2024-03-29T04:32:50;98360.25;;;7.71;45.62
49825;BME280;35714;55.708;37.478;2024-03-29T04:35:16;98346.50;;;7.72;45.42
49825;BME280;35714;55.708;37.478;2024-03-29T04:37:41;98336.59;;;7.78;45.52
49825;BME280;35714;55.708;37.478;2024-03-29T04:40:07;98334.50;;;7.80;45.70
49825;BME280;35714;55.708;37.478;2024-03-29T04:42:33;98324.03;;;7.84;45.50
49825;BME280;35714;55.708;37.478;2024-03-29T04:44:59;98323.22;;;7.83;45.50
49825;BME280;35714;55.708;37.478;2024-03-29T04:47:26;98319.06;;;7.92;45.43
49825;BME280;35714;55.708;37.478;2024-03-29T04:49:52;98309.97;;;7.99;45.45
49825;BME280;35714;55.708;37.478;2024-03-29T04:52:17;98307.84;;;8.01;45.37
49825;BME280;35714;55.708;37.478;2024-03-29T04:54:43;98306.28;;;8.05;45.10
49825;BME280;35714;55.708;37.478;2024-03-29T04:57:09;98304.41;;;8.05;45.20
49825;BME280;35714;55.708;37.478;2024-03-29T04:59:35;98303.09;;;8.08;44.79
49825;BME280;35714;55.708;37.478;2024-03-29T05:02:01;98299.75;;;8.01;45.32
49825;BME280;35714;55.708;37.478;2024-03-29T05:04:27;98298.59;;;8.13;45.03
49825;BME280;35714;55.708;37.478;2024-03-29T05:06:57;98295.66;;;8.15;44.96
49825;BME280;35714;55.708;37.478;2024-03-29T05:09:24;98273.56;;;8.18;45.01
49825;BME280;35714;55.708;37.478;2024-03-29T05:11:51;98265.94;;;8.32;44.90
49825;BME280;35714;55.708;37.478;2024-03-29T05:14:18;98262.13;;;8.33;44.54
49825;BME280;35714;55.708;37.478;2024-03-29T05:16:45;98268.38;;;8.34;44.55
49825;BME280;35714;55.708;37.478;2024-03-29T05:19:15;98273.94;;;8.44;44.16
49825;BME280;35714;55.708;37.478;2024-03-29T05:21:41;98281.63;;;8.52;44.07
49825;BME280;35714;55.708;37.478;2024-03-29T05:24:08;98285.44;;;8.56;43.43
49825;BME280;35714;55.708;37.478;2024-03-29T05:26:34;98294.94;;;8.59;43.64
49825;BME280;35714;55.708;37.478;2024-03-29T05:29:00;98273.88;;;8.61;43.38
49825;BME280;35714;55.708;37.478;2024-03-29T05:31:26;98277.84;;;8.75;43.04
49825;BME280;35714;55.708;37.478;2024-03-29T05:33:55;98285.97;;;8.75;43.15
49825;BME280;35714;55.708;37.478;2024-03-29T05:36:20;98282.94;;;8.72;43.27
49825;BME280;35714;55.708;37.478;2024-03-29T05:38:46;98271.38;;;8.76;43.57
49825;BME280;35714;55.708;37.478;2024-03-29T05:41:12;98271.84;;;8.90;43.20
49825;BME280;35714;55.708;37.478;2024-03-29T05:43:41;98275.63;;;9.16;42.74
49825;BME280;35714;55.708;37.478;2024-03-29T05:46:06;98264.63;;;9.23;42.35
49825;BME280;35714;55.708;37.478;2024-03-29T05:48:32;98265.72;;;9.27;42.28
49825;BME280;35714;55.708;37.478;2024-03-29T05:50:58;98301.56;;;9.39;41.87
49825;BME280;35714;55.708;37.478;2024-03-29T05:53:24;98297.38;;;9.54;41.39
49825;BME280;35714;55.708;37.478;2024-03-29T05:55:50;98292.59;;;9.34;41.73
49825;BME280;35714;55.708;37.478;2024-03-29T05:58:16;98286.81;;;9.25;41.83
49825;BME280;35714;55.708;37.478;2024-03-29T06:00:46;98282.50;;;9.02;42.21
49825;BME280;35714;55.708;37.478;2024-03-29T06:03:12;98287.97;;;9.07;42.40
49825;BME280;35714;55.708;37.478;2024-03-29T06:05:40;98283.38;;;9.08;42.50
49825;BME280;35714;55.708;37.478;2024-03-29T06:08:06;98283.69;;;9.11;42.38
49825;BME280;35714;55.708;37.478;2024-03-29T06:10:32;98273.88;;;9.05;42.51
49825;BME280;35714;55.708;37.478;2024-03-29T06:12:57;98272.50;;;9.02;42.83
49825;BME280;35714;55.708;37.478;2024-03-29T06:15:33;98265.06;;;9.15;42.32
49825;BME280;35714;55.708;37.478;2024-03-29T06:18:17;98260.19;;;9.12;42.47
49825;BME280;35714;55.708;37.478;2024-03-29T06:20:47;98281.59;;;9.18;42.52
49825;BME280;35714;55.708;37.478;2024-03-29T06:23:13;98272.22;;;9.26;42.39
49825;BME280;35714;55.708;37.478;2024-03-29T06:25:40;98290.06;;;9.27;42.11
49825;BME280;35714;55.708;37.478;2024-03-29T06:28:05;98289.06;;;9.33;41.52
49825;BME280;35714;55.708;37.478;2024-03-29T06:30:31;98283.59;;;9.28;42.05
49825;BME280;35714;55.708;37.478;2024-03-29T06:32:57;98273.19;;;9.42;41.63
49825;BME280;35714;55.708;37.478;2024-03-29T06:35:23;98269.72;;;9.47;41.42
49825;BME280;35714;55.708;37.478;2024-03-29T06:37:48;98279.41;;;9.43;41.52
49825;BME280;35714;55.708;37.478;2024-03-29T06:40:14;98272.91;;;9.38;41.87
49825;BME280;35714;55.708;37.478;2024-03-29T06:42:40;98270.44;;;9.37;41.91
49825;BME280;35714;55.708;37.478;2024-03-29T06:45:05;98276.53;;;9.27;41.98
49825;BME280;35714;55.708;37.478;2024-03-29T06:47:32;98275.69;;;9.21;41.97
49825;BME280;35714;55.708;37.478;2024-03-29T06:49:58;98280.53;;;9.19;41.92
49825;BME280;35714;55.708;37.478;2024-03-29T06:52:23;98292.56;;;9.07;42.32
49825;BME280;35714;55.708;37.478;2024-03-29T06:54:49;98274.06;;;8.98;42.48
49825;BME280;35714;55.708;37.478;2024-03-29T06:57:15;98277.34;;;9.00;42.72
49825;BME280;35714;55.708;37.478;2024-03-29T06:59:43;98266.09;;;9.09;42.36
49825;BME280;35714;55.708;37.478;2024-03-29T07:02:08;98268.09;;;9.18;42.58
49825;BME280;35714;55.708;37.478;2024-03-29T07:04:35;98257.94;;;9.31;42.32
49825;BME280;35714;55.708;37.478;2024-03-29T07:07:01;98261.50;;;9.36;42.26
49825;BME280;35714;55.708;37.478;2024-03-29T07:09:27;98253.69;;;9.40;42.19
49825;BME280;35714;55.708;37.478;2024-03-29T07:11:52;98254.59;;;9.51;41.82
49825;BME280;35714;55.708;37.478;2024-03-29T07:14:20;98254.19;;;9.64;41.68
49825;BME280;35714;55.708;37.478;2024-03-29T07:16:46;98260.63;;;9.58;41.55
49825;BME280;35714;55.708;37.478;2024-03-29T07:19:12;98250.81;;;9.52;41.90
49825;BME280;35714;55.708;37.478;2024-03-29T07:21:40;98237.31;;;9.57;41.70
49825;BME280;35714;55.708;37.478;2024-03-29T07:24:06;98250.81;;;9.52;41.95
49825;BME280;35714;55.708;37.478;2024-03-29T07:26:32;98247.06;;;9.53;41.99
49825;BME280;35714;55.708;37.478;2024-03-29T07:28:58;98251.34;;;9.49;41.75
49825;BME280;35714;55.708;37.478;2024-03-29T07:31:23;98250.81;;;9.52;42.05
49825;BME280;35714;55.708;37.478;2024-03-29T07:33:49;98249.78;;;9.58;41.58
49825;BME280;35714;55.708;37.478;2024-03-29T07:36:15;98238.75;;;9.32;42.12
49825;BME280;35714;55.708;37.478;2024-03-29T07:38:42;98236.66;;;9.12;42.96
49825;BME280;35714;55.708;37.478;2024-03-29T07:41:10;98234.50;;;9.14;42.81
49825;BME280;35714;55.708;37.478;2024-03-29T07:43:39;98224.41;;;9.05;42.96
49825;BME280;35714;55.708;37.478;2024-03-29T07:46:06;98228.56;;;8.90;43.18
49825;BME280;35714;55.708;37.478;2024-03-29T07:48:35;98234.50;;;8.87;43.64
49825;BME280;35714;55.708;37.478;2024-03-29T07:51:01;98222.09;;;8.91;43.30
49825;BME280;35714;55.708;37.478;2024-03-29T07:53:27;98221.47;;;8.84;43.43
49825;BME280;35714;55.708;37.478;2024-03-29T07:55:52;98224.06;;;8.74;44.05
49825;BME280;35714;55.708;37.478;2024-03-29T07:58:18;98237.66;;;8.79;44.04
49825;BME280;35714;55.708;37.478;2024-03-29T08:00:44;98238.06;;;8.71;44.68
49825;BME280;35714;55.708;37.478;2024-03-29T08:03:10;98233.09;;;8.62;45.14
49825;BME280;35714;55.708;37.478;2024-03-29T08:05:35;98235.69;;;8.52;45.64
49825;BME280;35714;55.708;37.478;2024-03-29T08:08:02;98235.13;;;8.50;47.14
49825;BME280;35714;55.708;37.478;2024-03-29T08:10:29;98205.81;;;8.42;48.28
49825;BME280;35714;55.708;37.478;2024-03-29T08:12:55;98191.66;;;8.35;48.64
49825;BME280;35714;55.708;37.478;2024-03-29T08:15:21;98171.66;;;8.30;48.79
49825;BME280;35714;55.708;37.478;2024-03-29T08:17:46;98174.91;;;8.32;48.97
49825;BME280;35714;55.708;37.478;2024-03-29T08:20:12;98173.25;;;8.31;49.10
49825;BME280;35714;55.708;37.478;2024-03-29T08:22:38;98192.75;;;8.34;48.96
49825;BME280;35714;55.708;37.478;2024-03-29T08:25:04;98212.09;;;8.25;49.15
49825;BME280;35714;55.708;37.478;2024-03-29T08:27:31;98218.31;;;8.26;48.96
49825;BME280;35714;55.708;37.478;2024-03-29T08:29:57;98212.94;;;8.09;49.28
49825;BME280;35714;55.708;37.478;2024-03-29T08:32:23;98222.81;;;8.20;49.28
49825;BME280;35714;55.708;37.478;2024-03-29T08:34:48;98223.25;;;8.12;49.26
49825;BME280;35714;55.708;37.478;2024-03-29T08:37:14;98230.03;;;8.15;49.73
49825;BME280;35714;55.708;37.478;2024-03-29T08:39:40;98219.69;;;8.28;49.27
49825;BME280;35714;55.708;37.478;2024-03-29T08:42:07;98212.41;;;8.29;49.39
49825;BME280;35714;55.708;37.478;2024-03-29T08:44:33;98213.19;;;8.46;48.19
49825;BME280;35714;55.708;37.478;2024-03-29T08:46:59;98194.03;;;8.48;48.01
49825;BME280;35714;55.708;37.478;2024-03-29T08:49:27;98201.72;;;8.39;48.63
49825;BME280;35714;55.708;37.478;2024-03-29T08:51:53;98205.97;;;8.52;48.17
49825;BME280;35714;55.708;37.478;2024-03-29T08:54:19;98197.38;;;8.55;48.75
49825;BME280;35714;55.708;37.478;2024-03-29T08:56:45;98208.78;;;8.62;47.95
49825;BME280;35714;55.708;37.478;2024-03-29T08:59:11;98210.63;;;8.79;46.96
49825;BME280;35714;55.708;37.478;2024-03-29T09:01:44;98211.00;;;8.65;47.40
49825;BME280;35714;55.708;37.478;2024-03-29T09:04:10;98212.13;;;8.70;47.35
49825;BME280;35714;55.708;37.478;2024-03-29T09:06:37;98196.88;;;8.58;47.16
49825;BME280;35714;55.708;37.478;2024-03-29T09:09:05;98191.72;;;8.57;47.39
49825;BME280;35714;55.708;37.478;2024-03-29T09:11:32;98187.63;;;8.54;47.56
49825;BME280;35714;55.708;37.478;2024-03-29T09:13:58;98175.03;;;8.43;47.45
49825;BME280;35714;55.708;37.478;2024-03-29T09:16:28;98198.44;;;8.54;47.49
49825;BME280;35714;55.708;37.478;2024-03-29T09:18:55;98199.19;;;8.72;47.11
49825;BME280;35714;55.708;37.478;2024-03-29T09:21:21;98188.38;;;8.72;47.12
49825;BME280;35714;55.708;37.478;2024-03-29T09:23:47;98183.47;;;8.69;47.35
49825;BME280;35714;55.708;37.478;2024-03-29T09:26:15;98198.47;;;8.81;46.99
49825;BME280;35714;55.708;37.478;2024-03-29T09:28:41;98183.38;;;8.85;46.90
49825;BME280;35714;55.708;37.478;2024-03-29T09:31:06;98190.78;;;8.95;46.74
49825;BME280;35714;55.708;37.478;2024-03-29T09:33:32;98176.63;;;8.88;46.59
49825;BME280;35714;55.708;37.478;2024-03-29T09:35:59;98187.00;;;8.96;46.88
49825;BME280;35714;55.708;37.478;2024-03-29T09:38:25;98183.28;;;9.02;46.76
49825;BME280;35714;55.708;37.478;2024-03-29T09:41:01;98180.63;;;9.08;46.29
49825;BME280;35714;55.708;37.478;2024-03-29T09:43:30;98189.88;;;9.12;46.00
49825;BME280;35714;55.708;37.478;2024-03-29T09:45:56;98195.22;;;9.07;46.19
49825;BME280;35714;55.708;37.478;2024-03-29T09:48:22;98181.75;;;9.12;46.09
49825;BME280;35714;55.708;37.478;2024-03-29T09:50:50;98178.94;;;9.01;46.44
49825;BME280;35714;55.708;37.478;2024-03-29T09:53:18;98179.91;;;8.90;46.84
49825;BME280;35714;55.708;37.478;2024-03-29T09:55:46;98180.94;;;8.84;46.78
49825;BME280;35714;55.708;37.478;2024-03-29T09:58:12;98179.28;;;8.83;46.88
49825;BME280;35714;55.708;37.478;2024-03-29T10:00:38;98172.88;;;8.89;47.11
49825;BME280;35714;55.708;37.478;2024-03-29T10:03:05;98165.31;;;9.18;46.32
49825;BME280;35714;55.708;37.478;2024-03-29T10:05:33;98162.06;;;9.54;45.47
49825;BME280;35714;55.708;37.478;2024-03-29T10:07:59;98174.75;;;9.86;44.55
49825;BME280;35714;55.708;37.478;2024-03-29T10:10:32;98177.72;;;9.84;44.75
49825;BME280;35714;55.708;37.478;2024-03-29T10:12:58;98164.22;;;9.89;44.71
49825;BME280;35714;55.708;37.478;2024-03-29T10:15:24;98168.91;;;10.04;44.53
49825;BME280;35714;55.708;37.478;2024-03-29T10:17:52;98167.81;;;10.05;44.52
49825;BME280;35714;55.708;37.478;2024-03-29T10:20:19;98170.06;;;10.19;44.38
49825;BME280;35714;55.708;37.478;2024-03-29T10:22:45;98166.38;;;10.35;43.71
49825;BME280;35714;55.708;37.478;2024-03-29T10:25:14;98160.97;;;10.40;44.03
49825;BME280;35714;55.708;37.478;2024-03-29T10:27:40;98171.91;;;10.66;43.68
49825;BME280;35714;55.708;37.478;2024-03-29T10:30:07;98152.16;;;10.81;43.05
49825;BME280;35714;55.708;37.478;2024-03-29T10:32:38;98137.28;;;10.99;42.34
49825;BME280;35714;55.708;37.478;2024-03-29T10:35:05;98139.97;;;10.94;42.51
49825;BME280;35714;55.708;37.478;2024-03-29T10:37:31;98141.63;;;11.05;42.55
49825;BME280;35714;55.708;37.478;2024-03-29T10:40:01;98139.19;;;11.14;42.29
49825;BME280;35714;55.708;37.478;2024-03-29T10:42:31;98138.66;;;11.07;42.19
49825;BME280;35714;55.708;37.478;2024-03-29T10:44:59;98145.44;;;11.04;42.63
49825;BME280;35714;55.708;37.478;2024-03-29T10:47:25;98136.47;;;10.88;42.72
49825;BME280;35714;55.708;37.478;2024-03-29T10:49:53;98125.34;;;10.95;42.40
49825;BME280;35714;55.708;37.478;2024-03-29T10:52:19;98123.44;;;11.47;41.97
49825;BME280;35714;55.708;37.478;2024-03-29T10:54:47;98119.03;;;11.97;40.36
49825;BME280;35714;55.708;37.478;2024-03-29T10:57:31;98122.03;;;11.90;40.81
49825;BME280;35714;55.708;37.478;2024-03-29T11:00:11;98132.66;;;11.71;40.95
49825;BME280;35714;55.708;37.478;2024-03-29T11:02:57;98138.38;;;11.44;41.53
49825;BME280;35714;55.708;37.478;2024-03-29T11:05:30;98108.00;;;11.16;41.69
49825;BME280;35714;55.708;37.478;2024-03-29T11:07:58;98127.53;;;11.24;42.24
49825;BME280;35714;55.708;37.478;2024-03-29T11:10:47;98125.91;;;11.33;42.23
49825;BME280;35714;55.708;37.478;2024-03-29T11:13:40;98121.00;;;11.45;42.57
49825;BME280;35714;55.708;37.478;2024-03-29T11:16:11;98108.47;;;11.85;41.46
49825;BME280;35714;55.708;37.478;2024-03-29T11:18:37;98109.97;;;12.33;40.49
49825;BME280;35714;55.708;37.478;2024-03-29T11:21:04;98103.22;;;12.75;39.73
49825;BME280;35714;55.708;37.478;2024-03-29T11:23:34;98119.88;;;13.71;38.12
49825;BME280;35714;55.708;37.478;2024-03-29T11:26:01;98111.38;;;14.46;35.98
49825;BME280;35714;55.708;37.478;2024-03-29T11:28:28;98108.75;;;15.16;35.44
49825;BME280;35714;55.708;37.478;2024-03-29T11:31:08;98118.81;;;16.29;33.86
49825;BME280;35714;55.708;37.478;2024-03-29T11:36:13;98113.63;;;17.82;32.36
49825;BME280;35714;55.708;37.478;2024-03-29T11:38:41;98110.03;;;18.70;30.03
49825;BME280;35714;55.708;37.478;2024-03-29T11:43:44;98112.94;;;19.79;27.88
49825;BME280;35714;55.708;37.478;2024-03-29T11:46:13;98112.97;;;20.17;27.40
49825;BME280;35714;55.708;37.478;2024-03-29T11:48:39;98103.84;;;20.55;27.39
49825;BME280;35714;55.708;37.478;2024-03-29T11:51:07;98109.16;;;21.12;27.03
49825;BME280;35714;55.708;37.478;2024-03-29T11:53:37;98099.63;;;21.76;25.47
49825;BME280;35714;55.708;37.478;2024-03-29T11:56:03;98101.28;;;22.26;24.70
49825;BME280;35714;55.708;37.478;2024-03-29T11:58:31;98106.50;;;22.40;24.16
49825;BME280;35714;55.708;37.478;2024-03-29T12:00:58;98094.50;;;22.24;24.55
49825;BME280;35714;55.708;37.478;2024-03-29T12:03:29;98102.47;;;22.50;24.18
49825;BME280;35714;55.708;37.478;2024-03-29T12:05:57;98101.25;;;22.76;23.43
49825;BME280;35714;55.708;37.478;2024-03-29T12:08:25;98099.06;;;22.81;23.43
49825;BME280;35714;55.708;37.478;2024-03-29T12:10:53;98109.50;;;23.13;23.06
49825;BME280;35714;55.708;37.478;2024-03-29T12:13:19;98105.34;;;23.06;23.14
49825;BME280;35714;55.708;37.478;2024-03-29T12:15:45;98110.41;;;23.04;22.96
49825;BME280;35714;55.708;37.478;2024-03-29T12:18:11;98104.03;;;22.76;23.43
49825;BME280;35714;55.708;37.478;2024-03-29T12:20:40;98124.31;;;22.55;24.02
49825;BME280;35714;55.708;37.478;2024-03-29T12:23:08;98132.09;;;22.78;23.97
49825;BME280;35714;55.708;37.478;2024-03-29T12:25:37;98116.19;;;22.99;23.29
49825;BME280;35714;55.708;37.478;2024-03-29T12:28:04;98108.38;;;23.30;23.70
49825;BME280;35714;55.708;37.478;2024-03-29T12:30:30;98106.97;;;24.08;22.73
49825;BME280;35714;55.708;37.478;2024-03-29T12:35:28;98111.03;;;23.99;22.34
49825;BME280;35714;55.708;37.478;2024-03-29T12:37:58;98109.06;;;23.83;22.72
49825;BME280;35714;55.708;37.478;2024-03-29T12:40:26;98121.59;;;23.93;22.32
49825;BME280;35714;55.708;37.478;2024-03-29T12:42:52;98112.31;;;23.85;22.74
49825;BME280;35714;55.708;37.478;2024-03-29T12:45:18;98109.88;;;23.84;22.53
49825;BME280;35714;55.708;37.478;2024-03-29T12:47:48;98120.25;;;23.87;22.56
49825;BME280;35714;55.708;37.478;2024-03-29T12:50:32;98109.34;;;23.50;22.75
49825;BME280;35714;55.708;37.478;2024-03-29T12:53:00;98114.63;;;22.86;23.52
49825;BME280;35714;55.708;37.478;2024-03-29T12:55:28;98099.22;;;22.60;23.91
49825;BME280;35714;55.708;37.478;2024-03-29T12:57:56;98104.06;;;22.51;24.23
49825;BME280;35714;55.708;37.478;2024-03-29T13:00:22;98102.84;;;21.78;24.96
49825;BME280;35714;55.708;37.478;2024-03-29T13:02:49;98107.66;;;20.93;25.69
49825;BME280;35714;55.708;37.478;2024-03-29T13:05:15;98103.91;;;20.17;27.20